Time;durP1;ratioP1;P1;durP2;ratioP2;P2;SDS_P1;SDS_P2;PMS_P1;PMS_P2;Temp;Humidity;BMP_temperature;BMP_pressure;BME280_temperature;BME280_humidity;BME280_pressure;Samples;Min_cycle;Max_cycle;Signal;HPM_P1;HPM_P2
2021/01/26 00:00:14;;;;;;;38.58;24.77;;;6.30;95.00;;;;;;5038533;28;20466;-83
2021/01/26 00:02:40;;;;;;;32.58;21.45;;;6.30;94.90;;;;;;5054963;28;20017;-82
2021/01/26 00:05:09;;;;;;;35.22;22.20;;;6.30;94.90;;;;;;5054751;28;20040;-83
2021/01/26 00:07:35;;;;;;;34.03;20.75;;;6.40;94.80;;;;;;5054735;28;20064;-83
2021/01/26 00:10:01;;;;;;;36.22;21.13;;;6.40;94.70;;;;;;5056178;28;20057;-83
2021/01/26 00:12:27;;;;;;;39.38;21.40;;;6.50;94.70;;;;;;5038474;28;20032;-83
2021/01/26 00:14:55;;;;;;;40.75;21.70;;;6.50;94.60;;;;;;5038210;28;20075;-83
2021/01/26 00:17:21;;;;;;;95.50;35.10;;;6.60;94.40;;;;;;5055835;28;20025;-83
2021/01/26 00:19:46;;;;;;;105.68;37.33;;;6.70;94.20;;;;;;5037945;28;20029;-83
2021/01/26 00:22:12;;;;;;;133.45;41.85;;;6.70;94.10;;;;;;5054874;28;20102;-83
2021/01/26 00:24:38;;;;;;;154.75;47.88;;;6.80;94.00;;;;;;5038258;28;20035;-83
2021/01/26 00:27:05;;;;;;;110.43;35.90;;;6.90;93.80;;;;;;5054867;28;20618;-84
2021/01/26 00:29:31;;;;;;;67.25;23.98;;;6.90;93.50;;;;;;5071556;28;20098;-83
2021/01/26 00:31:57;;;;;;;37.22;16.02;;;6.90;93.30;;;;;;5054619;28;20029;-83
2021/01/26 00:34:23;;;;;;;32.90;14.45;;;7.00;93.30;;;;;;5054555;28;20021;-83
2021/01/26 00:36:48;;;;;;;11.25;8.88;;;7.00;93.20;;;;;;5054880;28;20029;-83
2021/01/26 00:39:15;;;;;;;8.20;7.03;;;6.90;92.10;;;;;;5037911;28;20036;-84
2021/01/26 00:41:42;;;;;;;7.00;6.30;;;6.90;92.10;;;;;;5054407;28;20028;-84
2021/01/26 00:44:08;;;;;;;7.22;6.47;;;6.70;91.30;;;;;;5054201;28;20379;-83
2021/01/26 00:46:35;;;;;;;6.47;5.82;;;6.50;91.40;;;;;;5054344;28;20111;-83
2021/01/26 00:49:01;;;;;;;8.50;6.82;;;6.40;90.60;;;;;;5055735;28;20098;-83
2021/01/26 00:51:27;;;;;;;7.32;6.50;;;6.30;91.20;;;;;;5055471;28;20025;-83
2021/01/26 00:53:53;;;;;;;7.72;6.15;;;6.20;91.30;;;;;;5037965;28;20391;-83
2021/01/26 00:56:19;;;;;;;8.05;6.30;;;6.10;91.40;;;;;;5054291;28;20032;-84
2021/01/26 00:58:46;;;;;;;7.32;6.53;;;6.00;91.40;;;;;;5055047;28;20502;-83
2021/01/26 01:01:13;;;;;;;8.05;6.82;;;5.90;91.70;;;;;;5055779;28;20025;-84
2021/01/26 01:03:39;;;;;;;7.60;6.80;;;5.70;91.70;;;;;;5055367;28;20075;-84
2021/01/26 01:06:06;;;;;;;7.35;6.47;;;5.60;91.70;;;;;;5054384;28;20082;-83
2021/01/26 01:08:32;;;;;;;7.43;6.72;;;5.60;91.30;;;;;;5054192;28;20112;-83
2021/01/26 01:10:58;;;;;;;7.32;6.57;;;5.50;91.10;;;;;;5055233;28;20155;-84
2021/01/26 01:13:25;;;;;;;7.20;6.50;;;5.50;91.10;;;;;;5053915;28;20497;-83
2021/01/26 01:15:50;;;;;;;8.35;6.70;;;5.30;90.30;;;;;;5053753;28;20040;-84
2021/01/26 01:18:18;;;;;;;7.28;6.57;;;5.30;90.60;;;;;;5055044;28;20025;-83
2021/01/26 01:20:43;;;;;;;7.97;7.18;;;5.20;90.50;;;;;;5053862;28;20029;-83
2021/01/26 01:23:12;;;;;;;7.72;6.82;;;5.10;90.30;;;;;;5052662;28;20441;-83
2021/01/26 01:25:37;;;;;;;8.40;7.32;;;4.90;90.40;;;;;;5052687;28;20449;-83
2021/01/26 01:28:06;;;;;;;22.58;15.45;;;4.90;90.30;;;;;;5053016;28;20049;-84
2021/01/26 01:30:33;;;;;;;9.38;8.38;;;4.80;90.00;;;;;;5054006;28;20032;-83
2021/01/26 01:33:01;;;;;;;9.30;7.78;;;4.70;90.10;;;;;;5054759;28;20516;-83
2021/01/26 01:35:27;;;;;;;7.05;6.32;;;4.60;89.80;;;;;;5053341;28;20039;-83
2021/01/26 01:37:53;;;;;;;7.13;5.60;;;4.50;89.50;;;;;;5054431;28;20025;-83
2021/01/26 01:40:33;;;;;;;7.32;5.88;;;4.50;89.60;;;;;;5053641;28;20033;-83
2021/01/26 01:42:59;;;;;;;5.90;4.97;;;4.40;88.90;;;;;;5054657;28;20053;-84
2021/01/26 01:45:27;;;;;;;6.28;5.43;;;4.30;87.70;;;;;;5052931;28;20071;-83
2021/01/26 01:48:01;;;;;;;5.47;4.82;;;4.10;87.90;;;;;;5053517;28;20053;-83
2021/01/26 01:50:32;;;;;;;6.20;5.25;;;4.10;86.90;;;;;;5052210;28;20029;-84
2021/01/26 01:53:20;;;;;;;5.28;4.57;;;3.90;87.60;;;;;;5054472;28;20017;-84
2021/01/26 01:55:54;;;;;;;5.82;4.80;;;3.90;87.40;;;;;;5054510;28;20082;-84
2021/01/26 01:58:27;;;;;;;6.53;5.20;;;3.80;87.00;;;;;;5054600;28;20031;-84
2021/01/26 02:00:59;;;;;;;5.80;4.70;;;3.80;88.30;;;;;;5054299;28;20029;-84
2021/01/26 02:03:29;;;;;;;6.22;4.88;;;3.80;87.50;;;;;;5052872;28;20033;-84
2021/01/26 02:06:00;;;;;;;5.40;4.68;;;3.60;86.50;;;;;;5052639;28;20052;-83
2021/01/26 02:08:53;;;;;;;5.95;4.97;;;3.60;87.30;;;;;;5036490;28;20116;-84
2021/01/26 02:11:20;;;;;;;5.32;4.43;;;3.60;87.70;;;;;;5053343;28;20059;-84
2021/01/26 02:13:49;;;;;;;5.80;4.97;;;3.60;87.40;;;;;;5054307;28;20482;-84
2021/01/26 02:16:53;;;;;;;5.60;4.25;;;3.50;87.40;;;;;;5052776;28;20120;-83
2021/01/26 02:19:40;;;;;;;5.65;4.88;;;3.40;87.40;;;;;;5050517;28;20124;-83
2021/01/26 02:22:34;;;;;;;6.82;5.10;;;3.30;88.10;;;;;;5032823;28;20493;-84
2021/01/26 02:25:30;;;;;;;5.55;4.63;;;3.30;88.00;;;;;;5032832;28;20601;-83
2021/01/26 02:28:18;;;;;;;5.32;4.47;;;3.20;88.50;;;;;;5032661;28;20486;-83
2021/01/26 02:31:21;;;;;;;6.53;5.03;;;3.10;88.90;;;;;;5032846;28;20076;-84
2021/01/26 02:34:05;;;;;;;6.35;5.25;;;3.20;88.30;;;;;;5043390;28;20025;-84
2021/01/26 02:36:52;;;;;;;7.65;5.82;;;3.10;87.70;;;;;;5052878;28;20021;-84
2021/01/26 02:39:46;;;;;;;6.80;5.28;;;3.00;87.90;;;;;;5054062;28;20079;-84
2021/01/26 02:42:26;;;;;;;7.07;5.38;;;3.00;88.10;;;;;;5033742;28;20029;-84
2021/01/26 02:45:30;;;;;;;7.07;5.75;;;3.00;88.40;;;;;;5033712;28;20044;-84
2021/01/26 02:48:02;;;;;;;11.25;8.25;;;2.90;88.90;;;;;;5033713;28;20495;-83
2021/01/26 02:50:40;;;;;;;9.77;6.82;;;2.80;88.50;;;;;;5040364;28;20163;-83
2021/01/26 02:53:27;;;;;;;8.02;6.57;;;2.80;88.90;;;;;;5037650;28;20382;-83
2021/01/26 02:56:10;;;;;;;9.57;6.90;;;2.70;88.60;;;;;;5037155;28;20112;-84
2021/01/26 02:58:44;;;;;;;11.50;7.55;;;2.70;89.00;;;;;;5052319;28;20107;-83
2021/01/26 03:01:12;;;;;;;10.32;6.85;;;2.70;88.90;;;;;;5052397;28;20028;-84
2021/01/26 03:03:53;;;;;;;9.15;7.00;;;2.70;88.60;;;;;;5052287;28;20021;-84
2021/01/26 03:06:26;;;;;;;8.88;7.32;;;2.70;88.10;;;;;;5052453;28;20036;-84
2021/01/26 03:09:03;;;;;;;10.75;7.60;;;2.70;88.70;;;;;;5052132;28;20039;-84
2021/01/26 03:11:38;;;;;;;12.07;7.03;;;2.70;88.90;;;;;;5053059;28;20025;-84
2021/01/26 03:14:24;;;;;;;9.32;7.18;;;2.70;88.60;;;;;;5052279;28;20074;-84
2021/01/26 03:16:56;;;;;;;11.43;8.30;;;2.70;88.80;;;;;;5016780;28;20033;-84
2021/01/26 03:19:29;;;;;;;12.57;7.57;;;2.70;88.60;;;;;;5033583;28;20044;-84
2021/01/26 03:21:58;;;;;;;11.45;8.32;;;2.80;88.60;;;;;;5028176;28;20040;-84
2021/01/26 03:24:34;;;;;;;11.68;8.32;;;2.80;88.40;;;;;;5016247;28;20036;-84
2021/01/26 03:27:06;;;;;;;11.13;8.00;;;2.80;88.20;;;;;;5033153;28;20472;-84
2021/01/26 03:29:35;;;;;;;11.95;9.75;;;2.80;88.20;;;;;;5032278;28;20021;-84
2021/01/26 03:32:05;;;;;;;12.93;9.57;;;2.80;87.30;;;;;;5044030;28;20031;-84
2021/01/26 03:34:33;;;;;;;13.50;9.80;;;2.80;87.80;;;;;;5051705;28;20025;-83
2021/01/26 03:37:00;;;;;;;17.27;10.32;;;2.80;87.30;;;;;;5051976;28;20036;-83
2021/01/26 03:39:27;;;;;;;14.35;10.02;;;2.80;87.60;;;;;;5035635;28;20044;-84
2021/01/26 03:41:52;;;;;;;16.25;10.30;;;2.90;87.50;;;;;;5052148;28;20387;-84
2021/01/26 03:44:18;;;;;;;16.23;10.35;;;2.90;86.50;;;;;;5053479;28;20026;-84
2021/01/26 03:46:47;;;;;;;20.52;13.00;;;2.90;87.10;;;;;;5051712;28;20107;-84
2021/01/26 03:49:37;;;;;;;20.45;11.73;;;2.80;86.10;;;;;;5053338;28;20052;-84
2021/01/26 03:52:05;;;;;;;18.63;12.00;;;2.80;85.50;;;;;;5048707;28;20475;-84
2021/01/26 03:54:50;;;;;;;16.10;11.15;;;2.80;86.80;;;;;;5036342;28;20112;-84
2021/01/26 03:57:34;;;;;;;17.70;12.00;;;2.90;85.80;;;;;;5035761;28;20036;-84
2021/01/26 04:00:37;;;;;;;16.73;10.73;;;2.90;85.10;;;;;;5035771;28;20391;-83
2021/01/26 04:03:09;;;;;;;17.02;10.70;;;2.90;84.50;;;;;;5049405;28;20028;-84
2021/01/26 04:06:15;;;;;;;18.33;11.27;;;2.90;84.30;;;;;;5056772;28;20037;-84
2021/01/26 04:09:01;;;;;;;18.58;11.80;;;2.90;83.90;;;;;;5037619;28;20029;-83
2021/01/26 04:11:50;;;;;;;19.33;12.00;;;2.90;83.40;;;;;;5055306;28;20071;-83
2021/01/26 04:14:49;;;;;;;19.70;11.07;;;2.90;83.20;;;;;;5055043;28;20017;-83
2021/01/26 04:17:33;;;;;;;20.05;12.98;;;2.90;82.70;;;;;;5055032;28;20032;-84
2021/01/26 04:20:07;;;;;;;17.10;10.48;;;2.90;81.50;;;;;;5038279;28;20031;-83
2021/01/26 04:22:33;;;;;;;19.45;12.18;;;2.90;82.50;;;;;;5056448;28;20414;-83
2021/01/26 04:24:59;;;;;;;21.65;12.80;;;2.90;82.40;;;;;;5055771;28;20040;-83
2021/01/26 04:27:25;;;;;;;19.23;13.10;;;2.90;82.00;;;;;;5054309;28;20033;-84
2021/01/26 04:29:52;;;;;;;19.30;12.60;;;2.90;81.80;;;;;;5055001;28;20029;-83
2021/01/26 04:32:23;;;;;;;18.70;12.05;;;2.90;82.20;;;;;;5055595;28;20017;-84
2021/01/26 04:34:50;;;;;;;22.90;13.07;;;2.90;81.80;;;;;;5054631;28;20055;-85
2021/01/26 04:37:16;;;;;;;22.40;13.10;;;2.90;81.80;;;;;;5054555;28;20494;-84
2021/01/26 04:39:41;;;;;;;21.95;13.50;;;2.90;81.60;;;;;;5087817;28;20056;-83
2021/01/26 04:42:13;;;;;;;20.30;13.60;;;2.90;81.40;;;;;;5054030;28;20040;-84
2021/01/26 04:44:59;;;;;;;22.40;13.45;;;2.90;81.50;;;;;;5054459;28;20032;-83
2021/01/26 04:47:45;;;;;;;22.40;12.95;;;2.90;81.90;;;;;;5055262;28;20049;-83
2021/01/26 04:50:36;;;;;;;19.73;12.45;;;2.90;81.80;;;;;;5054985;28;20025;-83
2021/01/26 04:53:32;;;;;;;17.88;11.40;;;2.90;81.90;;;;;;5055203;28;20025;-85
2021/01/26 04:56:29;;;;;;;18.48;12.23;;;2.80;80.80;;;;;;5054440;28;20025;-84
2021/01/26 04:59:05;;;;;;;20.75;12.18;;;2.80;81.10;;;;;;5054242;28;20032;-85
2021/01/26 05:01:57;;;;;;;21.13;12.80;;;2.80;81.60;;;;;;5054260;28;20044;-83
2021/01/26 05:04:34;;;;;;;21.02;13.27;;;2.80;80.40;;;;;;5054148;28;20457;-82
2021/01/26 05:07:08;;;;;;;17.40;11.25;;;2.80;81.20;;;;;;5053887;28;20029;-83
2021/01/26 05:09:57;;;;;;;17.58;11.43;;;2.80;81.10;;;;;;5053383;28;20374;-82
2021/01/26 05:12:25;;;;;;;19.63;12.50;;;2.80;79.80;;;;;;5053795;28;20124;-83
2021/01/26 05:14:58;;;;;;;14.48;9.02;;;2.80;79.30;;;;;;5054005;28;20484;-83
2021/01/26 05:17:50;;;;;;;18.48;11.40;;;2.80;80.40;;;;;;5053382;28;20892;-83
2021/01/26 05:20:26;;;;;;;18.60;10.77;;;2.80;80.00;;;;;;5053346;28;20045;-82
2021/01/26 05:23:12;;;;;;;17.77;10.80;;;2.80;79.50;;;;;;5053626;28;20382;-82
2021/01/26 05:25:38;;;;;;;18.25;9.75;;;2.80;80.30;;;;;;5022123;28;20099;-82
2021/01/26 05:28:06;;;;;;;15.43;9.80;;;2.80;79.30;;;;;;5054658;28;20072;-83
2021/01/26 05:30:35;;;;;;;15.40;9.38;;;2.80;78.70;;;;;;5054877;28;20039;-82
2021/01/26 05:33:13;;;;;;;14.88;9.60;;;2.80;77.80;;;;;;5053613;28;20459;-81
2021/01/26 05:35:43;;;;;;;14.18;9.35;;;2.80;78.10;;;;;;5053625;28;20061;-82
2021/01/26 05:38:10;;;;;;;19.23;10.70;;;2.80;78.40;;;;;;5053525;28;20040;-83
2021/01/26 05:40:39;;;;;;;14.82;9.20;;;2.80;77.90;;;;;;5053400;28;20057;-83
2021/01/26 05:43:09;;;;;;;14.90;8.98;;;2.80;77.80;;;;;;5036888;28;20055;-82
2021/01/26 05:45:40;;;;;;;14.45;9.10;;;2.80;77.80;;;;;;5053088;28;20047;-85
2021/01/26 05:48:15;;;;;;;12.77;8.00;;;2.80;77.30;;;;;;5054921;28;20017;-82
2021/01/26 05:50:43;;;;;;;14.48;9.02;;;2.80;77.40;;;;;;5053332;28;20028;-84
2021/01/26 05:53:31;;;;;;;16.80;9.18;;;2.70;77.80;;;;;;5037039;28;20112;-84
2021/01/26 05:56:15;;;;;;;13.13;8.25;;;2.80;77.70;;;;;;5053518;28;20029;-85
2021/01/26 05:58:48;;;;;;;11.25;7.38;;;2.80;77.70;;;;;;5053976;28;20060;-87
2021/01/26 06:01:34;;;;;;;17.00;9.40;;;2.70;76.30;;;;;;5054173;28;20041;-88
2021/01/26 06:04:06;;;;;;;12.63;8.65;;;2.70;76.40;;;;;;5052923;28;20475;-87
2021/01/26 06:07:19;;;;;;;16.98;9.15;;;2.70;76.90;;;;;;5053735;28;20052;-96
2021/01/26 06:09:45;;;;;;;11.55;7.45;;;2.70;76.80;;;;;;5051872;28;20105;-95
2021/01/26 06:12:14;;;;;;;14.18;8.48;;;2.80;77.30;;;;;;5053980;28;20106;-93
2021/01/26 06:14:50;;;;;;;12.90;8.55;;;2.80;77.00;;;;;;5053573;28;20021;-93
2021/01/26 06:17:23;;;;;;;11.93;7.65;;;2.80;77.70;;;;;;5071592;28;20482;-90
2021/01/26 06:20:20;;;;;;;13.43;8.40;;;2.80;76.90;;;;;;5053503;28;20067;-90
2021/01/26 06:22:47;;;;;;;14.05;8.85;;;2.80;76.50;;;;;;5053391;28;20107;-85
2021/01/26 06:25:32;;;;;;;15.00;9.48;;;2.80;76.80;;;;;;5053100;28;20025;-84
2021/01/26 06:28:33;;;;;;;14.18;9.27;;;2.80;77.30;;;;;;5054170;28;20048;-84
2021/01/26 06:31:08;;;;;;;13.75;9.30;;;2.80;77.60;;;;;;5037381;28;20033;-84
2021/01/26 06:33:48;;;;;;;16.63;9.43;;;2.80;77.70;;;;;;5053113;28;20021;-84
2021/01/26 06:37:04;;;;;;;12.55;8.85;;;2.80;77.80;;;;;;5052796;28;20031;-84
2021/01/26 06:40:01;;;;;;;13.25;8.88;;;2.80;77.20;;;;;;5030740;28;20029;-85
2021/01/26 06:42:57;;;;;;;14.82;9.50;;;2.80;77.90;;;;;;5053004;28;20040;-84
2021/01/26 06:46:04;;;;;;;16.17;9.55;;;2.80;78.40;;;;;;5052409;28;20123;-85
2021/01/26 06:48:57;;;;;;;17.80;11.07;;;2.70;78.20;;;;;;5053678;28;20029;-84
2021/01/26 06:51:29;;;;;;;18.05;11.50;;;2.80;79.00;;;;;;5052796;28;20021;-85
2021/01/26 06:54:04;;;;;;;16.33;10.40;;;2.80;78.90;;;;;;5052522;28;20082;-85
2021/01/26 06:57:21;;;;;;;19.10;12.15;;;2.80;79.00;;;;;;5054164;28;20045;-84
2021/01/26 07:00:17;;;;;;;18.63;10.82;;;2.70;78.80;;;;;;5052622;28;20021;-85
2021/01/26 07:03:05;;;;;;;20.90;12.10;;;2.70;79.40;;;;;;5052668;28;20036;-85
2021/01/26 07:06:08;;;;;;;19.65;11.85;;;2.70;79.00;;;;;;5052674;28;20032;-85
2021/01/26 07:09:03;;;;;;;17.63;12.07;;;2.70;79.30;;;;;;5054194;28;20037;-85
2021/01/26 07:11:59;;;;;;;18.23;12.18;;;2.70;79.20;;;;;;5052387;28;20059;-85
2021/01/26 07:15:04;;;;;;;19.45;12.60;;;2.60;79.40;;;;;;5052644;28;20063;-84
2021/01/26 07:17:48;;;;;;;17.75;11.70;;;2.70;79.60;;;;;;5052563;28;20059;-84
2021/01/26 07:20:24;;;;;;;16.05;10.68;;;2.70;79.40;;;;;;5053654;28;20032;-85
2021/01/26 07:23:29;;;;;;;18.52;12.15;;;2.70;79.60;;;;;;5052196;28;20028;-84
2021/01/26 07:26:23;;;;;;;18.50;12.15;;;2.70;79.30;;;;;;5014882;28;20403;-84
2021/01/26 07:29:01;;;;;;;21.65;12.20;;;2.60;79.70;;;;;;5020060;28;20026;-84
2021/01/26 07:31:42;;;;;;;21.85;12.38;;;2.70;79.70;;;;;;5045951;28;20037;-85
2021/01/26 07:34:42;;;;;;;19.52;13.10;;;2.70;79.20;;;;;;5057353;28;20032;-84
2021/01/26 07:37:21;;;;;;;17.35;11.50;;;2.60;80.00;;;;;;5057061;28;20025;-84
2021/01/26 07:40:08;;;;;;;17.35;11.40;;;2.70;79.10;;;;;;5055940;28;20032;-84
2021/01/26 07:42:52;;;;;;;19.10;12.35;;;2.60;78.70;;;;;;5056012;28;20057;-84
2021/01/26 07:45:24;;;;;;;18.85;10.15;;;2.60;79.00;;;;;;5055540;28;20035;-85
2021/01/26 07:48:03;;;;;;;15.30;9.88;;;2.70;79.40;;;;;;5055806;28;20025;-85
2021/01/26 07:50:40;;;;;;;14.73;11.00;;;2.60;78.70;;;;;;5057059;28;20787;-84
2021/01/26 07:53:19;;;;;;;16.83;12.30;;;2.70;78.80;;;;;;5055571;28;20021;-85
2021/01/26 07:56:22;;;;;;;16.55;10.30;;;2.70;79.00;;;;;;5056863;28;20466;-85
2021/01/26 07:58:49;;;;;;;17.40;11.57;;;2.80;79.10;;;;;;5056273;28;20040;-84
2021/01/26 08:01:19;;;;;;;22.58;12.90;;;2.70;79.10;;;;;;5056561;28;20401;-84
2021/01/26 08:03:45;;;;;;;17.85;11.88;;;2.80;79.10;;;;;;5055283;28;20029;-84
2021/01/26 08:06:33;;;;;;;15.25;10.10;;;2.80;78.60;;;;;;5055189;28;20029;-83
2021/01/26 08:08:59;;;;;;;15.65;9.70;;;2.90;78.50;;;;;;5055293;28;20033;-83
2021/01/26 08:11:25;;;;;;;16.23;9.88;;;2.80;78.60;;;;;;5056404;28;20100;-83
2021/01/26 08:13:59;;;;;;;15.40;10.15;;;2.90;78.90;;;;;;5056406;28;20064;-84
2021/01/26 08:16:42;;;;;;;15.75;10.80;;;2.80;78.10;;;;;;5055248;28;20036;-84
2021/01/26 08:19:36;;;;;;;13.10;8.85;;;2.80;78.60;;;;;;5056488;28;20036;-84
2021/01/26 08:22:41;;;;;;;13.57;9.27;;;2.90;78.60;;;;;;5055343;28;20059;-84
2021/01/26 08:25:22;;;;;;;13.45;8.10;;;2.90;78.20;;;;;;5035569;28;20470;-85
2021/01/26 08:27:51;;;;;;;;;;;2.90;78.20;;;;;;5055707;28;20383;-85
2021/01/26 08:30:40;;;;;;;13.90;8.73;;;2.90;78.50;;;;;;5055354;28;19952;-85
2021/01/26 08:33:08;;;;;;;15.70;9.00;;;2.90;78.10;;;;;;5055204;28;20382;-84
2021/01/26 08:35:36;;;;;;;12.52;8.57;;;3.00;78.00;;;;;;5055070;28;20029;-84
2021/01/26 08:38:03;;;;;;;12.52;8.35;;;3.00;78.00;;;;;;5054854;28;20360;-85
2021/01/26 08:40:29;;;;;;;16.08;9.88;;;3.00;78.40;;;;;;5054238;28;20086;-83
2021/01/26 08:43:05;;;;;;;17.45;11.50;;;3.00;78.40;;;;;;5054497;28;20033;-83
2021/01/26 08:45:32;;;;;;;24.00;12.88;;;3.10;77.90;;;;;;5054316;28;20056;-84
2021/01/26 08:48:03;;;;;;;19.08;11.45;;;3.10;78.50;;;;;;5054521;28;20039;-84
2021/01/26 08:51:02;;;;;;;20.67;12.88;;;3.20;78.70;;;;;;5054554;28;20527;-84
2021/01/26 08:53:28;;;;;;;22.38;13.10;;;3.30;78.50;;;;;;5054266;28;20032;-83
2021/01/26 08:56:03;;;;;;;51.10;19.35;;;3.40;78.20;;;;;;5054380;28;20029;-83
2021/01/26 08:58:37;;;;;;;24.30;12.68;;;3.50;78.50;;;;;;5054246;28;20067;-83
2021/01/26 09:01:04;;;;;;;27.08;13.45;;;3.50;76.60;;;;;;5054653;28;20032;-83
2021/01/26 09:03:38;;;;;;;23.33;12.50;;;3.50;77.20;;;;;;5054232;28;20186;-82
2021/01/26 09:06:07;;;;;;;21.02;11.25;;;3.60;77.00;;;;;;5054226;28;20032;-83
2021/01/26 09:08:42;;;;;;;23.85;11.35;;;3.60;76.90;;;;;;5055779;28;20029;-83
2021/01/26 09:11:29;;;;;;;22.55;12.00;;;3.70;76.90;;;;;;5054115;28;20029;-83
2021/01/26 09:14:08;;;;;;;19.13;10.98;;;3.70;76.70;;;;;;5054191;28;20025;-82
2021/01/26 09:16:35;;;;;;;25.95;14.23;;;3.70;76.70;;;;;;5054097;28;20032;-82
2021/01/26 09:19:23;;;;;;;31.00;18.48;;;3.70;76.10;;;;;;5055269;28;20025;-84
2021/01/26 09:21:49;;;;;;;20.98;12.25;;;3.70;75.90;;;;;;5054987;28;20029;-83
2021/01/26 09:24:21;;;;;;;15.48;9.77;;;3.80;75.60;;;;;;5054994;28;20374;-83
2021/01/26 09:26:47;;;;;;;14.77;9.77;;;3.90;74.70;;;;;;5054950;28;20074;-83
2021/01/26 09:29:28;;;;;;;12.20;8.88;;;3.90;74.30;;;;;;5053910;28;20025;-84
2021/01/26 09:31:55;;;;;;;13.02;8.23;;;4.00;72.90;;;;;;5053887;28;20130;-83
2021/01/26 09:34:28;;;;;;;15.90;8.88;;;4.10;73.30;;;;;;5053498;28;20032;-83
2021/01/26 09:37:23;;;;;;;17.90;9.50;;;4.20;73.00;;;;;;5054839;28;20025;-83
2021/01/26 09:39:49;;;;;;;15.15;9.05;;;4.20;72.20;;;;;;5054727;28;20104;-83
2021/01/26 09:42:21;;;;;;;12.98;8.45;;;4.20;72.90;;;;;;5053362;28;20036;-83
2021/01/26 09:44:58;;;;;;;10.05;6.63;;;4.20;72.30;;;;;;5052995;28;20462;-84
2021/01/26 09:47:26;;;;;;;11.75;7.32;;;4.30;72.50;;;;;;5054408;28;20094;-82
2021/01/26 09:50:18;;;;;;;11.50;6.40;;;4.20;71.10;;;;;;5053144;28;20025;-83
2021/01/26 09:52:44;;;;;;;12.45;7.78;;;4.30;71.60;;;;;;5054094;28;20037;-83
2021/01/26 09:55:13;;;;;;;18.98;9.13;;;4.20;71.10;;;;;;5053192;28;20021;-83
2021/01/26 09:57:40;;;;;;;13.38;7.53;;;4.20;72.10;;;;;;5054255;28;20021;-83
2021/01/26 10:00:12;;;;;;;11.02;6.80;;;4.20;72.40;;;;;;5052931;28;20136;-83
2021/01/26 10:02:40;;;;;;;13.73;7.93;;;4.30;72.10;;;;;;5053066;28;20031;-83
2021/01/26 10:05:17;;;;;;;15.10;8.27;;;4.20;71.80;;;;;;5052955;28;20470;-83
2021/01/26 10:07:43;;;;;;;30.70;13.07;;;4.20;71.30;;;;;;5052967;28;20025;-83
2021/01/26 10:10:28;;;;;;;20.73;10.13;;;4.30;71.70;;;;;;5052809;28;20025;-82
2021/01/26 10:12:53;;;;;;;15.30;8.30;;;4.30;70.80;;;;;;5052865;28;20715;-82
2021/01/26 10:15:30;;;;;;;22.63;11.13;;;4.20;71.10;;;;;;5054081;28;20025;-83
2021/01/26 10:18:15;;;;;;;31.63;15.00;;;4.30;71.40;;;;;;5052484;28;20017;-82
2021/01/26 10:20:47;;;;;;;28.13;13.82;;;4.30;71.80;;;;;;5054006;28;20013;-82
2021/01/26 10:23:24;;;;;;;41.88;17.45;;;4.30;72.00;;;;;;5052656;28;20083;-82
2021/01/26 10:25:51;;;;;;;24.33;12.13;;;4.40;70.90;;;;;;5052635;28;20119;-82
2021/01/26 10:28:26;;;;;;;19.73;10.80;;;4.40;70.40;;;;;;5054004;28;20024;-83
2021/01/26 10:30:53;;;;;;;16.80;9.50;;;4.40;70.20;;;;;;5052702;28;20021;-82
2021/01/26 10:33:41;;;;;;;29.45;16.92;;;4.50;71.00;;;;;;5052496;28;20087;-82
2021/01/26 10:36:27;;;;;;;15.13;10.13;;;4.50;71.10;;;;;;5053750;28;20108;-83
2021/01/26 10:38:55;;;;;;;22.80;11.98;;;4.50;70.80;;;;;;5053725;28;20028;-82
2021/01/26 10:41:26;;;;;;;16.98;9.55;;;4.60;71.20;;;;;;5052769;28;20028;-83
2021/01/26 10:44:04;;;;;;;16.98;10.10;;;4.60;70.50;;;;;;5052803;28;20025;-84
2021/01/26 10:46:50;;;;;;;12.77;8.13;;;4.60;69.70;;;;;;5052230;28;20041;-83
2021/01/26 10:49:34;;;;;;;14.02;9.13;;;4.60;70.20;;;;;;5052225;28;20021;-83
2021/01/26 10:52:08;;;;;;;11.45;7.40;;;4.60;70.30;;;;;;5052369;28;20115;-84
2021/01/26 10:54:36;;;;;;;10.18;7.15;;;4.70;70.20;;;;;;5053783;28;20056;-84
2021/01/26 10:57:02;;;;;;;15.43;10.07;;;4.60;70.00;;;;;;5053638;28;20032;-84
2021/01/26 10:59:27;;;;;;;12.25;7.82;;;4.60;70.50;;;;;;5053635;28;20382;-84
2021/01/26 11:01:53;;;;;;;9.70;7.38;;;4.60;70.90;;;;;;5053049;28;20021;-83
2021/01/26 11:04:19;;;;;;;11.48;7.97;;;4.70;71.40;;;;;;5056407;28;20036;-82
2021/01/26 11:06:45;;;;;;;10.57;7.13;;;4.60;71.20;;;;;;5056866;28;20029;-82
2021/01/26 11:09:14;;;;;;;10.73;7.75;;;4.50;71.00;;;;;;5056545;28;20104;-85
2021/01/26 11:11:42;;;;;;;12.05;7.50;;;4.60;70.30;;;;;;5057510;28;20021;-85
2021/01/26 11:14:08;;;;;;;12.48;7.65;;;4.60;70.70;;;;;;5056355;28;20025;-84
2021/01/26 11:16:35;;;;;;;10.32;6.97;;;4.60;71.00;;;;;;5056301;28;20052;-85
2021/01/26 11:19:02;;;;;;;10.65;7.15;;;4.70;71.20;;;;;;5056185;28;20024;-84
2021/01/26 11:21:28;;;;;;;9.05;6.43;;;4.60;71.00;;;;;;5057379;28;20025;-85
2021/01/26 11:23:54;;;;;;;12.20;6.50;;;4.70;70.70;;;;;;5055871;28;20025;-84
2021/01/26 11:26:22;;;;;;;10.10;6.50;;;4.70;69.80;;;;;;5057056;28;20029;-84
2021/01/26 11:28:49;;;;;;;9.20;6.15;;;4.70;69.90;;;;;;5057204;28;20017;-84
2021/01/26 11:31:17;;;;;;;8.73;6.03;;;4.80;70.10;;;;;;5055919;28;20028;-85
2021/01/26 11:33:43;;;;;;;11.18;6.97;;;4.70;70.00;;;;;;5056991;28;20021;-84
2021/01/26 11:36:09;;;;;;;9.02;5.82;;;4.60;69.10;;;;;;5055851;28;20075;-85
2021/01/26 11:38:35;;;;;;;7.57;5.65;;;4.60;69.50;;;;;;5055756;28;20021;-85
2021/01/26 11:41:05;;;;;;;11.90;6.18;;;4.70;70.00;;;;;;5056889;28;20075;-83
2021/01/26 11:43:32;;;;;;;8.43;5.68;;;4.70;69.60;;;;;;5055432;28;20033;-84
2021/01/26 11:45:58;;;;;;;9.95;5.93;;;4.70;70.50;;;;;;5056581;28;20041;-84
2021/01/26 11:48:25;;;;;;;8.65;5.57;;;4.70;70.30;;;;;;5056882;28;20014;-83
2021/01/26 11:50:51;;;;;;;9.32;5.90;;;4.70;69.50;;;;;;5057011;28;20463;-84
2021/01/26 11:53:19;;;;;;;8.02;6.28;;;4.70;70.40;;;;;;5055568;28;20433;-84
2021/01/26 11:55:45;;;;;;;6.97;5.22;;;4.70;70.50;;;;;;5055764;28;20029;-84
2021/01/26 11:58:11;;;;;;;9.95;6.25;;;4.80;70.40;;;;;;5055803;28;20036;-84
2021/01/26 12:00:37;;;;;;;10.00;6.18;;;4.80;70.30;;;;;;5057048;28;20409;-84
2021/01/26 12:03:05;;;;;;;7.18;5.53;;;4.70;70.00;;;;;;5055455;28;20061;-84
2021/01/26 12:05:33;;;;;;;8.38;5.97;;;4.70;70.10;;;;;;5055510;28;20094;-84
2021/01/26 12:07:59;;;;;;;11.13;7.80;;;4.70;69.50;;;;;;5055523;28;20083;-84
2021/01/26 12:10:25;;;;;;;9.02;5.85;;;4.60;68.90;;;;;;5055498;28;20414;-84
2021/01/26 12:12:51;;;;;;;7.70;5.57;;;4.60;69.50;;;;;;5055260;28;20055;-83
2021/01/26 12:15:21;;;;;;;10.63;7.43;;;4.60;69.60;;;;;;5054606;28;20044;-83
2021/01/26 12:17:47;;;;;;;7.00;5.35;;;4.60;69.80;;;;;;5055535;28;20032;-88
2021/01/26 12:20:14;;;;;;;11.38;6.85;;;4.60;69.40;;;;;;5055635;28;20021;-85
2021/01/26 12:22:40;;;;;;;16.65;10.02;;;4.60;69.60;;;;;;5055477;28;20021;-83
2021/01/26 12:25:07;;;;;;;20.17;12.25;;;4.60;69.90;;;;;;5055293;28;20040;-86
2021/01/26 12:27:33;;;;;;;10.27;6.78;;;4.60;70.10;;;;;;5055350;28;20064;-84
2021/01/26 12:29:59;;;;;;;13.82;8.20;;;4.60;69.50;;;;;;5055529;28;20021;-85
2021/01/26 12:32:25;;;;;;;16.45;8.95;;;4.60;69.30;;;;;;5055690;28;20170;-84
2021/01/26 12:34:51;;;;;;;14.50;9.55;;;4.40;69.20;;;;;;5053222;28;20025;-84
2021/01/26 12:37:19;;;;;;;14.05;8.70;;;4.40;70.10;;;;;;5055588;28;20540;-84
2021/01/26 12:39:45;;;;;;;14.73;9.02;;;4.50;70.20;;;;;;5054922;28;20052;-85
2021/01/26 12:42:10;;;;;;;16.00;9.20;;;4.40;70.10;;;;;;5056147;28;20036;-84
2021/01/26 12:44:36;;;;;;;17.38;10.13;;;4.50;70.40;;;;;;5054820;28;20025;-85
2021/01/26 12:47:02;;;;;;;13.82;8.23;;;4.50;70.40;;;;;;5054716;28;20364;-84
2021/01/26 12:49:28;;;;;;;23.67;11.32;;;4.50;70.60;;;;;;5055814;28;20045;-83
2021/01/26 12:51:53;;;;;;;25.42;11.70;;;4.40;70.70;;;;;;5055969;28;20024;-84
2021/01/26 12:54:20;;;;;;;13.63;7.88;;;4.40;71.20;;;;;;5054669;28;20021;-85
2021/01/26 12:56:47;;;;;;;11.27;6.55;;;4.40;70.40;;;;;;5054364;28;20035;-84
2021/01/26 12:59:14;;;;;;;11.25;6.65;;;4.40;70.20;;;;;;5054632;28;20025;-84
2021/01/26 13:01:39;;;;;;;12.55;7.55;;;4.50;70.60;;;;;;5055946;28;20029;-84
2021/01/26 13:04:05;;;;;;;14.00;8.18;;;4.40;70.10;;;;;;5054778;28;20025;-85
2021/01/26 13:06:31;;;;;;;11.50;6.78;;;4.30;70.50;;;;;;5054254;28;20029;-83
2021/01/26 13:08:57;;;;;;;11.90;8.27;;;4.30;70.70;;;;;;5053759;28;20025;-82
2021/01/26 13:11:23;;;;;;;12.32;7.80;;;4.30;70.70;;;;;;5055737;28;20459;-83
2021/01/26 13:13:49;;;;;;;15.40;7.15;;;4.30;71.30;;;;;;5055327;28;20021;-82
2021/01/26 13:16:15;;;;;;;12.80;7.20;;;4.30;71.40;;;;;;5055691;28;20025;-84
2021/01/26 13:18:41;;;;;;;12.45;7.63;;;4.30;71.50;;;;;;5054149;28;20029;-84
2021/01/26 13:21:08;;;;;;;9.63;6.78;;;4.30;72.40;;;;;;5055507;28;20040;-84
2021/01/26 13:23:33;;;;;;;9.50;6.22;;;4.30;71.30;;;;;;5053817;28;20467;-84